Glen Avon, Illinois
Current Conditions -  °F | °C
As of 4:50 AM on Wednesday 26 Nov 2014 (Local Time) from KTIP Reporting Station
Clear Clear  
Wind Chill: 21°   Ceiling: Unl
Heat Index: 21°   Visibility: 7mi
Dew Point: 19°   Wind: 3mph
Humidity: 91%   Direction: 120°ESE
Pressure: 30.14"   Gusts: NA
Location:  40.3398°N, 88.5173°W
Report Text: KTIP 261050Z AUTO 12003KT 7SM CLR M06/M07 A3014 RMK AO2 T10601072
Loading
Personal Weather Stations






























Interactive Weather Map New forecast layout! Learn more

10-Day Weather Forecast

Advertisements
Track Severe Weather on mobile